Terminal Aerodrome Forecast
Issued by NWS Sterling, VA

Current Version | Previous Version | Graphics & Text | Print | Product List | Glossary On
Versions: 1 2 3 4 5 6 7 8 9 10 11 12 13 14 15 16 17 18 19 20 21 22
118
FTUS41 KLWX 252102 AAA
TAFDCA
TAF AMD
KDCA 252102Z 2521/2618 18007KT P6SM SCT050
     FM260800 14004KT P6SM BKN050
     FM261200 15004KT P6SM SCT040 BKN080
     FM261600 16008KT P6SM SCT035 BKN045=

USA.gov is the U.S. government's official web portal to all federal, state and local government web resources and services.